Time;durP1;ratioP1;P1;durP2;ratioP2;P2;SDS_P1;SDS_P2;PMS_P1;PMS_P2;Temp;Humidity;BMP_temperature;BMP_pressure;BME280_temperature;BME280_humidity;BME280_pressure;Samples;Min_cycle;Max_cycle;Signal;HPM_P1;HPM_P2
2021/03/13 00:01:07;;;;;;;24.97;12.23;;;2.50;99.90;;;;;;4426466;32;20194;-71
2021/03/13 00:03:34;;;;;;;24.60;12.73;;;2.50;99.90;;;;;;4427395;32;20138;-71
2021/03/13 00:06:01;;;;;;;22.87;11.50;;;2.50;99.90;;;;;;4427880;32;20152;-70
2021/03/13 00:08:27;;;;;;;23.83;11.77;;;2.40;99.90;;;;;;4426466;32;20143;-70
2021/03/13 00:10:54;;;;;;;24.77;11.87;;;2.40;99.90;;;;;;4426663;32;20136;-72
2021/03/13 00:13:20;;;;;;;21.77;11.40;;;2.30;99.90;;;;;;4426299;32;20435;-69
2021/03/13 00:15:47;;;;;;;23.30;11.90;;;2.40;99.90;;;;;;4427254;32;20485;-69
2021/03/13 00:18:14;;;;;;;20.33;11.47;;;2.40;99.90;;;;;;4427699;32;20200;-70
2021/03/13 00:20:42;;;;;;;25.07;12.27;;;2.30;99.90;;;;;;4426203;32;20461;-71
2021/03/13 00:23:09;;;;;;;26.53;12.30;;;2.30;99.90;;;;;;4425962;32;20441;-70
2021/03/13 00:25:37;;;;;;;23.93;11.87;;;2.30;99.90;;;;;;4427653;32;20189;-70
2021/03/13 00:28:05;;;;;;;22.47;11.80;;;2.20;99.90;;;;;;4426089;32;20174;-70
2021/03/13 00:30:34;;;;;;;23.97;11.90;;;2.20;99.90;;;;;;4427550;32;20135;-70
2021/03/13 00:33:21;;;;;;;25.50;11.47;;;2.20;99.90;;;;;;4427176;32;20135;-70
2021/03/13 00:35:50;;;;;;;23.80;11.63;;;2.20;99.90;;;;;;4427428;32;20188;-70
2021/03/13 00:38:17;;;;;;;25.00;11.70;;;2.30;99.90;;;;;;4426068;32;20138;-71
2021/03/13 00:40:45;;;;;;;23.13;11.40;;;2.20;99.90;;;;;;4427367;32;20162;-71
2021/03/13 00:43:14;;;;;;;22.97;11.47;;;2.20;99.90;;;;;;4427055;32;20503;-70
2021/03/13 00:45:41;;;;;;;23.77;11.73;;;2.20;99.90;;;;;;4425782;32;20147;-71
2021/03/13 00:48:09;;;;;;;24.07;12.13;;;2.20;99.90;;;;;;4427122;32;20169;-71
2021/03/13 00:50:38;;;;;;;24.97;11.30;;;2.20;99.90;;;;;;4425780;32;20159;-72
2021/03/13 00:53:05;;;;;;;25.47;12.03;;;2.20;99.90;;;;;;4426305;32;20170;-71
2021/03/13 00:55:33;;;;;;;22.87;11.20;;;2.20;99.90;;;;;;4425403;32;20173;-71
2021/03/13 00:57:59;;;;;;;23.53;11.80;;;2.20;99.90;;;;;;4427183;32;20139;-71
2021/03/13 01:00:35;;;;;;;26.90;11.93;;;2.10;99.90;;;;;;4425697;32;20138;-70
2021/03/13 01:03:01;;;;;;;28.90;12.40;;;2.00;99.90;;;;;;4427133;32;20492;-70
2021/03/13 01:05:28;;;;;;;23.23;11.53;;;2.10;99.90;;;;;;4425184;32;20486;-70
2021/03/13 01:07:55;;;;;;;22.27;11.20;;;2.00;99.90;;;;;;4426943;32;20190;-70
2021/03/13 01:10:35;;;;;;;25.20;12.03;;;2.00;99.90;;;;;;4425517;32;20171;-70
2021/03/13 01:13:03;;;;;;;26.77;11.67;;;2.00;99.90;;;;;;4425978;32;20197;-70
2021/03/13 01:15:31;;;;;;;25.47;11.17;;;2.00;99.90;;;;;;4426901;32;20198;-70
2021/03/13 01:17:58;;;;;;;22.57;11.47;;;2.00;99.90;;;;;;4426820;32;20189;-70
2021/03/13 01:20:26;;;;;;;25.70;11.57;;;2.00;99.90;;;;;;4426804;32;20147;-70
2021/03/13 01:22:53;;;;;;;24.73;12.17;;;2.00;99.90;;;;;;4425308;32;20174;-71
2021/03/13 01:25:19;;;;;;;25.80;11.93;;;1.90;99.90;;;;;;4426450;32;20208;-70
2021/03/13 01:27:46;;;;;;;28.30;12.87;;;1.90;99.90;;;;;;4425328;32;20147;-70
2021/03/13 01:30:15;;;;;;;26.87;11.70;;;1.90;99.90;;;;;;4426417;32;20131;-70
2021/03/13 01:32:42;;;;;;;26.03;12.13;;;1.90;99.90;;;;;;4426665;32;20139;-70
2021/03/13 01:35:10;;;;;;;22.13;11.60;;;1.90;99.90;;;;;;4411064;32;20187;-70
2021/03/13 01:37:37;;;;;;;24.67;12.10;;;2.00;99.90;;;;;;4426597;32;20159;-70
2021/03/13 01:40:06;;;;;;;24.77;11.57;;;1.90;99.90;;;;;;4426294;32;20170;-72
2021/03/13 01:42:35;;;;;;;25.60;11.47;;;1.90;99.90;;;;;;4425057;32;20169;-73
2021/03/13 01:45:02;;;;;;;26.23;11.83;;;2.00;99.90;;;;;;4425956;32;20218;-73
2021/03/13 01:47:29;;;;;;;28.47;12.07;;;1.90;99.90;;;;;;4426426;32;20479;-74
2021/03/13 01:49:56;;;;;;;23.63;11.70;;;1.90;99.90;;;;;;4425000;32;20151;-72
2021/03/13 01:52:23;;;;;;;26.77;11.80;;;1.90;99.90;;;;;;4425910;32;20208;-73
2021/03/13 01:54:50;;;;;;;26.13;11.50;;;1.90;99.90;;;;;;4426810;32;20517;-73
2021/03/13 01:57:17;;;;;;;21.83;11.27;;;1.90;99.90;;;;;;4426592;32;20165;-73
2021/03/13 01:59:45;;;;;;;26.73;11.27;;;1.90;99.90;;;;;;4426111;32;20197;-73
2021/03/13 02:02:13;;;;;;;22.33;11.20;;;1.90;99.90;;;;;;4424705;32;20445;-73
2021/03/13 02:04:40;;;;;;;24.93;12.10;;;1.90;99.90;;;;;;4424757;32;20147;-73
2021/03/13 02:07:42;;;;;;;26.90;12.40;;;1.90;99.90;;;;;;4424661;32;20396;-73
2021/03/13 02:10:38;;;;;;;24.93;11.40;;;1.90;99.90;;;;;;4349583;33;20156;-73
2021/03/13 02:13:21;;;;;;;25.73;11.50;;;1.80;99.90;;;;;;4336818;33;20163;-73
2021/03/13 02:15:59;;;;;;;23.50;11.60;;;1.90;99.90;;;;;;4334873;33;20231;-72
2021/03/13 02:18:33;;;;;;;24.30;11.30;;;1.80;99.90;;;;;;4347791;33;20219;-73
2021/03/13 02:21:19;;;;;;;24.17;10.80;;;1.90;99.90;;;;;;4347616;33;20550;-74
2021/03/13 02:24:01;;;;;;;26.30;11.17;;;1.90;99.90;;;;;;4334968;33;20623;-73
2021/03/13 02:26:43;;;;;;;23.23;10.63;;;1.80;99.90;;;;;;4334392;33;20182;-73
2021/03/13 02:29:22;;;;;;;21.50;10.23;;;1.80;99.90;;;;;;4334382;33;20156;-74
2021/03/13 02:31:52;;;;;;;22.33;10.97;;;1.80;99.90;;;;;;4347588;33;20145;-74
2021/03/13 02:34:26;;;;;;;22.87;11.07;;;1.80;99.90;;;;;;4334984;33;20163;-73
2021/03/13 02:36:55;;;;;;;20.87;10.43;;;1.80;99.90;;;;;;4334525;33;20178;-74
2021/03/13 02:39:30;;;;;;;20.73;10.23;;;1.80;99.90;;;;;;4346560;33;20156;-74
2021/03/13 02:42:02;;;;;;;23.30;11.07;;;1.80;99.90;;;;;;4347354;33;20166;-74
2021/03/13 02:44:32;;;;;;;26.83;10.60;;;1.80;99.90;;;;;;4382454;32;20151;-74
2021/03/13 02:47:00;;;;;;;20.50;10.37;;;1.80;99.90;;;;;;4423696;32;20407;-74
2021/03/13 02:49:28;;;;;;;21.57;10.10;;;1.80;99.90;;;;;;4409967;32;20451;-72
2021/03/13 02:51:55;;;;;;;22.97;10.03;;;1.90;99.90;;;;;;4425053;32;20161;-73
2021/03/13 02:54:23;;;;;;;22.47;9.27;;;1.90;99.90;;;;;;4425683;32;20192;-72
2021/03/13 02:56:51;;;;;;;21.77;10.03;;;1.90;99.90;;;;;;4424295;32;20165;-72
2021/03/13 02:59:18;;;;;;;21.93;9.80;;;1.90;99.90;;;;;;4422622;32;20579;-73
2021/03/13 03:02:03;;;;;;;19.50;9.37;;;1.90;99.90;;;;;;4409979;32;20193;-74
2021/03/13 03:04:33;;;;;;;22.00;9.53;;;1.90;99.90;;;;;;4425086;32;20150;-72
2021/03/13 03:07:00;;;;;;;22.50;9.30;;;1.80;99.90;;;;;;4424167;32;20155;-72
2021/03/13 03:09:27;;;;;;;22.67;9.07;;;1.90;99.90;;;;;;4425178;32;20178;-73
2021/03/13 03:11:55;;;;;;;21.30;9.47;;;1.90;99.90;;;;;;4424096;32;20173;-73
2021/03/13 03:14:22;;;;;;;21.40;9.50;;;1.90;99.90;;;;;;4423633;32;20181;-73
2021/03/13 03:16:53;;;;;;;23.77;9.33;;;1.90;99.90;;;;;;4422394;32;20155;-72
2021/03/13 03:19:22;;;;;;;20.57;9.70;;;1.90;99.90;;;;;;4426776;32;20155;-72
2021/03/13 03:21:48;;;;;;;18.77;8.57;;;1.90;99.90;;;;;;4427283;32;20186;-73
2021/03/13 03:24:15;;;;;;;24.33;10.07;;;1.90;99.90;;;;;;4425730;32;20420;-72
2021/03/13 03:26:41;;;;;;;19.73;9.00;;;1.90;99.90;;;;;;4426894;32;20185;-72
2021/03/13 03:29:09;;;;;;;20.80;9.00;;;1.90;99.90;;;;;;4428771;32;20146;-73
2021/03/13 03:31:35;;;;;;;19.40;9.27;;;2.00;99.90;;;;;;4426412;32;20551;-73
2021/03/13 03:34:03;;;;;;;21.43;9.80;;;1.90;99.90;;;;;;4427402;32;20501;-73
2021/03/13 03:36:30;;;;;;;22.73;9.40;;;2.00;99.90;;;;;;4426912;32;20163;-72
2021/03/13 03:38:57;;;;;;;22.70;9.40;;;1.90;99.90;;;;;;4426847;32;20139;-72
2021/03/13 03:41:28;;;;;;;18.77;9.70;;;1.90;99.90;;;;;;4426898;32;20135;-72
2021/03/13 03:44:10;;;;;;;23.30;9.47;;;2.00;99.90;;;;;;4428840;32;20150;-72
2021/03/13 03:46:37;;;;;;;22.00;9.93;;;2.00;99.90;;;;;;4426913;32;20151;-72
2021/03/13 03:49:06;;;;;;;23.57;9.80;;;2.00;99.90;;;;;;4413391;32;20161;-72
2021/03/13 03:51:35;;;;;;;26.67;10.87;;;2.00;99.90;;;;;;4428688;32;20193;-72
2021/03/13 03:54:07;;;;;;;27.60;10.63;;;2.00;99.90;;;;;;4427571;32;20412;-72
2021/03/13 03:56:34;;;;;;;21.70;10.50;;;2.00;99.90;;;;;;4427235;32;20154;-72
2021/03/13 03:59:02;;;;;;;24.67;10.97;;;2.00;99.90;;;;;;4425886;32;20138;-73
2021/03/13 04:01:30;;;;;;;23.70;10.50;;;2.00;99.90;;;;;;4426603;32;20135;-73
2021/03/13 04:03:58;;;;;;;22.10;10.67;;;2.00;99.90;;;;;;4426876;32;20219;-73
2021/03/13 04:06:26;;;;;;;24.77;10.70;;;2.00;99.90;;;;;;4412172;32;20171;-73
2021/03/13 04:09:03;;;;;;;25.43;11.23;;;2.00;99.90;;;;;;4426365;32;20246;-73
2021/03/13 04:11:31;;;;;;;24.57;10.33;;;2.10;99.90;;;;;;4412573;32;20424;-73
2021/03/13 04:14:00;;;;;;;24.93;11.17;;;2.10;99.90;;;;;;4427453;32;20142;-72
2021/03/13 04:16:30;;;;;;;28.17;11.70;;;2.10;99.90;;;;;;4426302;32;20218;-72
2021/03/13 04:19:00;;;;;;;25.60;10.93;;;2.20;99.90;;;;;;4425824;32;20169;-73
2021/03/13 04:21:28;;;;;;;28.27;11.47;;;2.10;99.90;;;;;;4425843;32;20204;-73
2021/03/13 04:23:55;;;;;;;26.93;11.27;;;2.20;99.90;;;;;;4426329;32;20154;-73
2021/03/13 04:26:22;;;;;;;26.47;11.97;;;2.10;99.90;;;;;;4426430;32;20142;-73
2021/03/13 04:28:49;;;;;;;26.13;11.63;;;2.10;99.90;;;;;;4426065;32;20515;-73
2021/03/13 04:31:26;;;;;;;25.87;10.90;;;2.10;99.90;;;;;;4427588;32;20208;-73
2021/03/13 04:33:53;;;;;;;28.47;11.30;;;2.10;99.90;;;;;;4427070;32;20723;-73
2021/03/13 04:36:21;;;;;;;31.53;11.97;;;2.10;99.90;;;;;;4426933;32;20189;-73
2021/03/13 04:38:48;;;;;;;29.30;11.80;;;2.10;99.90;;;;;;4427512;32;20185;-74
2021/03/13 04:41:15;;;;;;;27.53;11.90;;;2.10;99.90;;;;;;4425972;32;20135;-74
2021/03/13 04:43:42;;;;;;;26.97;11.57;;;2.20;99.90;;;;;;4426149;32;20154;-73
2021/03/13 04:46:10;;;;;;;23.83;10.87;;;2.10;99.90;;;;;;4426227;32;20143;-74
2021/03/13 04:48:37;;;;;;;29.90;11.90;;;2.20;99.90;;;;;;4412827;32;20544;-72
2021/03/13 04:51:06;;;;;;;28.33;11.77;;;2.20;99.90;;;;;;4425880;32;20147;-73
2021/03/13 04:53:33;;;;;;;27.10;11.30;;;2.20;99.90;;;;;;4425651;32;20143;-74
2021/03/13 04:55:59;;;;;;;28.00;11.73;;;2.10;99.90;;;;;;4425733;32;20202;-73
2021/03/13 04:58:28;;;;;;;31.00;11.57;;;2.10;99.90;;;;;;4425462;32;20147;-73
2021/03/13 05:00:55;;;;;;;30.50;11.43;;;2.20;99.90;;;;;;4426337;32;20151;-73
2021/03/13 05:03:36;;;;;;;28.50;11.87;;;2.10;99.90;;;;;;4426624;32;20155;-73
2021/03/13 05:06:04;;;;;;;25.47;10.83;;;2.10;99.90;;;;;;4425980;32;20197;-73
2021/03/13 05:08:30;;;;;;;27.90;11.20;;;2.10;99.90;;;;;;4426795;32;20151;-73
2021/03/13 05:10:57;;;;;;;26.53;11.77;;;2.10;99.90;;;;;;4427014;32;20181;-73
2021/03/13 05:13:23;;;;;;;27.10;12.00;;;2.10;99.90;;;;;;4425391;32;20190;-73
2021/03/13 05:15:49;;;;;;;24.53;11.53;;;2.10;99.90;;;;;;4423579;32;20178;-73
2021/03/13 05:18:16;;;;;;;27.53;11.33;;;2.10;99.90;;;;;;4424032;32;20147;-73
2021/03/13 05:20:43;;;;;;;28.40;11.57;;;2.20;99.90;;;;;;4423547;32;20212;-72
2021/03/13 05:23:09;;;;;;;25.73;11.30;;;2.20;99.90;;;;;;4423240;32;20228;-72
2021/03/13 05:25:36;;;;;;;27.87;11.33;;;2.30;99.90;;;;;;4424097;32;20208;-72
2021/03/13 05:28:02;;;;;;;31.60;12.07;;;2.30;99.90;;;;;;4422712;32;20423;-73
2021/03/13 05:30:29;;;;;;;30.63;11.17;;;2.40;99.90;;;;;;4425076;32;20218;-73
2021/03/13 05:32:55;;;;;;;27.20;11.60;;;2.30;99.90;;;;;;4410865;32;20167;-73
2021/03/13 05:35:22;;;;;;;31.00;12.63;;;2.30;99.90;;;;;;4425316;32;20155;-72
2021/03/13 05:37:48;;;;;;;29.77;11.87;;;2.30;99.90;;;;;;4425472;32;20332;-72
2021/03/13 05:40:15;;;;;;;27.33;11.97;;;2.30;99.90;;;;;;4424921;32;20196;-72
2021/03/13 05:42:42;;;;;;;26.00;11.30;;;2.40;99.90;;;;;;4426075;32;20142;-72
2021/03/13 05:45:09;;;;;;;28.93;11.53;;;2.40;99.90;;;;;;4426123;32;20154;-72
2021/03/13 05:47:37;;;;;;;28.73;11.43;;;2.50;99.90;;;;;;4426364;32;20477;-72
2021/03/13 05:50:12;;;;;;;26.13;11.30;;;2.50;99.90;;;;;;4424538;32;20166;-72
2021/03/13 05:52:39;;;;;;;29.83;11.03;;;2.60;99.90;;;;;;4425862;32;20173;-73
2021/03/13 05:55:08;;;;;;;27.80;10.67;;;2.70;99.90;;;;;;4424909;32;20139;-72
2021/03/13 05:57:35;;;;;;;27.17;11.07;;;2.70;99.90;;;;;;4424905;32;20147;-73
2021/03/13 06:00:06;;;;;;;26.53;11.20;;;2.70;99.90;;;;;;4425828;32;20139;-73
2021/03/13 06:02:36;;;;;;;24.87;10.83;;;2.80;99.90;;;;;;4424793;32;20461;-73
2021/03/13 06:05:03;;;;;;;26.27;11.30;;;2.90;99.90;;;;;;4424787;32;20144;-72
2021/03/13 06:07:31;;;;;;;23.20;10.13;;;2.90;99.90;;;;;;4424682;32;20143;-73
2021/03/13 06:09:58;;;;;;;25.13;10.60;;;2.90;99.90;;;;;;4411100;32;20151;-73
2021/03/13 06:12:25;;;;;;;26.53;11.13;;;3.00;99.90;;;;;;4425252;32;20173;-73
2021/03/13 06:14:55;;;;;;;25.93;10.40;;;3.00;99.90;;;;;;4425065;32;20189;-73
2021/03/13 06:17:24;;;;;;;27.17;11.23;;;3.00;99.90;;;;;;4426142;32;20179;-73
2021/03/13 06:19:57;;;;;;;28.83;11.17;;;3.10;99.90;;;;;;4424525;32;20143;-73
2021/03/13 06:22:41;;;;;;;25.20;10.33;;;3.10;99.90;;;;;;4425189;32;20147;-74
2021/03/13 06:25:18;;;;;;;25.87;10.90;;;3.10;99.90;;;;;;4424330;32;20185;-74
2021/03/13 06:27:47;;;;;;;23.53;10.70;;;3.10;99.90;;;;;;4425683;32;20499;-74
2021/03/13 06:30:14;;;;;;;25.73;10.67;;;3.20;99.90;;;;;;4424573;32;20178;-74
2021/03/13 06:32:41;;;;;;;25.00;10.70;;;3.20;99.90;;;;;;4424454;32;20189;-74
2021/03/13 06:35:29;;;;;;;28.63;11.20;;;3.20;99.90;;;;;;4424472;32;20135;-74
2021/03/13 06:38:12;;;;;;;24.90;10.47;;;3.30;99.90;;;;;;4424900;32;20139;-74
2021/03/13 06:40:38;;;;;;;24.47;10.53;;;3.30;99.90;;;;;;4424436;32;20218;-74
2021/03/13 06:43:22;;;;;;;24.83;10.60;;;3.40;99.90;;;;;;4424427;32;20146;-74
2021/03/13 06:46:00;;;;;;;24.43;10.83;;;3.40;99.90;;;;;;4424066;32;20166;-74
2021/03/13 06:48:48;;;;;;;28.43;11.20;;;3.40;99.90;;;;;;4424275;32;20150;-73
2021/03/13 06:51:28;;;;;;;26.60;10.57;;;3.40;99.90;;;;;;4425287;32;20155;-73
2021/03/13 06:54:08;;;;;;;22.37;9.93;;;3.40;99.90;;;;;;4427229;32;20164;-74
2021/03/13 06:56:37;;;;;;;25.00;10.10;;;3.50;99.90;;;;;;4429055;32;20143;-72
2021/03/13 06:59:49;;;;;;;22.90;10.00;;;3.40;99.90;;;;;;4429409;32;20198;-73
2021/03/13 07:02:21;;;;;;;21.33;9.03;;;3.50;99.90;;;;;;4428874;32;20135;-73
2021/03/13 07:05:06;;;;;;;19.40;8.60;;;3.60;99.90;;;;;;4426922;32;20155;-73
2021/03/13 07:07:33;;;;;;;19.77;9.03;;;3.50;99.90;;;;;;4427109;32;20152;-74
2021/03/13 07:10:04;;;;;;;19.87;9.10;;;3.40;99.90;;;;;;4428399;32;20166;-74
2021/03/13 07:12:32;;;;;;;18.67;8.47;;;3.40;99.90;;;;;;4427271;32;20139;-74
2021/03/13 07:15:19;;;;;;;19.80;8.07;;;3.40;99.90;;;;;;4427160;32;20134;-74
2021/03/13 07:17:52;;;;;;;18.00;8.23;;;3.30;99.90;;;;;;4428703;32;20192;-74
2021/03/13 07:20:27;;;;;;;21.07;8.90;;;3.30;99.90;;;;;;4428606;32;20161;-74
2021/03/13 07:22:56;;;;;;;17.50;8.07;;;3.20;99.90;;;;;;4427840;32;20230;-74
2021/03/13 07:25:24;;;;;;;18.83;8.60;;;3.10;99.90;;;;;;4426996;32;20188;-73
2021/03/13 07:27:55;;;;;;;19.60;8.73;;;3.10;99.90;;;;;;4426789;32;20182;-72
2021/03/13 07:30:23;;;;;;;19.67;8.73;;;3.00;99.90;;;;;;4428379;32;20163;-72
2021/03/13 07:33:13;;;;;;;19.10;9.07;;;2.90;99.90;;;;;;4428251;32;20147;-73
2021/03/13 07:35:47;;;;;;;18.20;9.00;;;2.90;99.90;;;;;;4349845;33;20152;-73
2021/03/13 07:38:15;;;;;;;18.43;9.27;;;2.80;99.90;;;;;;4351353;33;20489;-73
2021/03/13 07:40:46;;;;;;;23.10;9.53;;;2.80;99.90;;;;;;4350167;33;20180;-73
2021/03/13 07:43:17;;;;;;;23.60;10.40;;;2.70;99.90;;;;;;4350962;33;20451;-73
2021/03/13 07:45:47;;;;;;;20.33;9.60;;;2.60;99.90;;;;;;4350947;33;20230;-72
2021/03/13 07:48:15;;;;;;;18.80;8.77;;;2.60;99.90;;;;;;4349200;33;20324;-71
2021/03/13 07:50:46;;;;;;;19.13;9.73;;;2.50;99.90;;;;;;4349216;33;20425;-71
2021/03/13 07:53:14;;;;;;;20.10;9.97;;;2.40;99.90;;;;;;4350176;33;20431;-71
2021/03/13 07:55:51;;;;;;;22.23;10.13;;;2.40;99.90;;;;;;4350657;33;20148;-71
2021/03/13 07:58:22;;;;;;;19.13;9.57;;;2.30;99.90;;;;;;4350683;33;20141;-71
2021/03/13 08:00:50;;;;;;;22.37;9.87;;;2.30;99.90;;;;;;4349336;33;20152;-71
2021/03/13 08:03:45;;;;;;;22.13;10.43;;;2.40;99.90;;;;;;4349076;33;20184;-71
2021/03/13 08:06:14;;;;;;;21.23;10.63;;;2.40;99.90;;;;;;4349255;33;20168;-72
2021/03/13 08:08:47;;;;;;;19.20;9.53;;;2.50;99.90;;;;;;4348976;33;20171;-71
2021/03/13 08:11:15;;;;;;;19.37;10.33;;;2.60;99.90;;;;;;4351012;33;20570;-71
2021/03/13 08:13:42;;;;;;;19.70;9.93;;;2.60;99.90;;;;;;4420233;32;20516;-72
2021/03/13 08:16:09;;;;;;;19.37;10.50;;;2.60;99.90;;;;;;4426293;32;20157;-72
2021/03/13 08:18:53;;;;;;;18.30;9.87;;;2.60;99.90;;;;;;4426530;32;20148;-71
2021/03/13 08:21:19;;;;;;;19.10;9.43;;;2.50;99.90;;;;;;4427704;32;20151;-71
2021/03/13 08:23:58;;;;;;;19.27;10.20;;;2.50;99.90;;;;;;4425840;32;20301;-71
2021/03/13 08:26:33;;;;;;;20.07;10.27;;;2.50;99.90;;;;;;4426198;32;20159;-71
2021/03/13 08:29:01;;;;;;;17.97;10.37;;;2.50;99.90;;;;;;4427451;32;20457;-71
2021/03/13 08:31:34;;;;;;;17.13;10.23;;;2.50;99.90;;;;;;4425869;32;20205;-71
2021/03/13 08:34:04;;;;;;;17.73;9.97;;;2.60;99.90;;;;;;4426487;32;20135;-71
2021/03/13 08:36:52;;;;;;;19.90;10.17;;;2.70;99.90;;;;;;4425953;32;20143;-71
2021/03/13 08:39:22;;;;;;;16.97;9.07;;;2.80;99.90;;;;;;4427372;32;20166;-71
2021/03/13 08:41:49;;;;;;;15.93;9.20;;;2.90;99.90;;;;;;4427037;32;20154;-71
2021/03/13 08:44:19;;;;;;;18.17;9.87;;;2.90;99.90;;;;;;4426661;32;20458;-72
2021/03/13 08:47:07;;;;;;;17.77;9.73;;;3.00;99.90;;;;;;4426934;32;20143;-72
2021/03/13 08:49:38;;;;;;;16.40;9.17;;;3.20;99.90;;;;;;4427597;32;20236;-72
2021/03/13 08:52:05;;;;;;;16.70;9.13;;;3.30;99.90;;;;;;4426734;32;20230;-72
2021/03/13 08:54:39;;;;;;;16.73;9.60;;;3.50;99.90;;;;;;4427560;32;20147;-72
2021/03/13 08:57:09;;;;;;;15.47;9.30;;;3.70;99.90;;;;;;4426928;32;20193;-72
2021/03/13 08:59:36;;;;;;;16.07;8.60;;;3.90;99.90;;;;;;4426436;32;20147;-72
2021/03/13 09:02:13;;;;;;;15.97;8.73;;;4.20;99.90;;;;;;4427072;32;20445;-72
2021/03/13 09:04:43;;;;;;;14.93;8.33;;;4.40;99.90;;;;;;4425977;32;20230;-72
2021/03/13 09:07:11;;;;;;;12.23;7.47;;;5.00;99.90;;;;;;4426257;32;20150;-72
2021/03/13 09:09:40;;;;;;;13.93;7.67;;;5.20;99.90;;;;;;4426231;32;20148;-72
2021/03/13 09:12:14;;;;;;;11.57;7.00;;;5.40;99.90;;;;;;4425513;32;20219;-72
2021/03/13 09:14:42;;;;;;;13.03;7.17;;;5.60;99.90;;;;;;4426701;32;20427;-73
2021/03/13 09:17:16;;;;;;;14.00;7.30;;;5.80;99.90;;;;;;4424663;32;20181;-72
2021/03/13 09:19:45;;;;;;;12.00;7.10;;;6.20;99.90;;;;;;4426726;32;20518;-73
2021/03/13 09:22:21;;;;;;;11.47;6.93;;;6.40;99.90;;;;;;4425164;32;20157;-73
2021/03/13 09:24:59;;;;;;;13.60;7.13;;;6.60;99.90;;;;;;4425185;32;20157;-74
2021/03/13 09:27:31;;;;;;;11.23;6.80;;;6.90;99.90;;;;;;4425157;32;20145;-74
2021/03/13 09:29:58;;;;;;;11.33;6.30;;;7.10;99.90;;;;;;4426666;32;20150;-74
2021/03/13 09:32:27;;;;;;;12.30;6.17;;;7.20;99.90;;;;;;4424467;32;20145;-73
2021/03/13 09:34:55;;;;;;;12.20;5.77;;;7.10;99.90;;;;;;4426641;32;20462;-74
2021/03/13 09:37:24;;;;;;;10.33;5.67;;;6.70;99.90;;;;;;4410738;32;20135;-75
2021/03/13 09:40:04;;;;;;;9.13;5.47;;;6.80;99.90;;;;;;4424940;32;20158;-73
2021/03/13 09:42:31;;;;;;;10.27;5.27;;;6.80;99.90;;;;;;4425151;32;20201;-74
2021/03/13 09:45:00;;;;;;;10.63;5.50;;;7.00;99.90;;;;;;4426585;32;20162;-74
2021/03/13 09:47:41;;;;;;;9.00;5.30;;;7.00;99.90;;;;;;4424682;32;20170;-74
2021/03/13 09:50:18;;;;;;;9.10;5.43;;;7.00;99.90;;;;;;4424712;32;20149;-73
2021/03/13 09:52:48;;;;;;;8.73;5.20;;;6.90;99.90;;;;;;4424917;32;20138;-72
2021/03/13 09:55:16;;;;;;;8.50;4.97;;;6.80;99.90;;;;;;4424687;32;20178;-73
2021/03/13 09:57:50;;;;;;;11.17;5.13;;;6.80;99.90;;;;;;4424666;32;20144;-73
2021/03/13 10:00:21;;;;;;;10.17;5.17;;;6.80;99.90;;;;;;4426265;32;20172;-73
2021/03/13 10:02:48;;;;;;;7.03;4.40;;;6.80;99.90;;;;;;4424929;32;20135;-73
2021/03/13 10:05:20;;;;;;;9.77;4.90;;;6.80;99.90;;;;;;4426036;32;20146;-73
2021/03/13 10:07:49;;;;;;;12.10;4.60;;;6.90;99.90;;;;;;4425824;32;20495;-72
2021/03/13 10:10:26;;;;;;;8.70;4.70;;;7.00;99.90;;;;;;4425155;32;20171;-72
2021/03/13 10:12:55;;;;;;;6.07;4.47;;;6.90;99.90;;;;;;4425327;32;20524;-73
2021/03/13 10:15:48;;;;;;;8.17;4.60;;;7.00;99.90;;;;;;4424531;32;20281;-73
2021/03/13 10:18:17;;;;;;;7.67;4.50;;;7.00;99.90;;;;;;4421560;32;20173;-73
2021/03/13 10:20:49;;;;;;;9.10;4.87;;;7.20;99.90;;;;;;4424287;32;20198;-74
2021/03/13 10:23:21;;;;;;;8.53;4.40;;;7.20;99.90;;;;;;4424540;32;20410;-71
2021/03/13 10:25:57;;;;;;;7.30;4.97;;;7.10;99.90;;;;;;4424637;32;20368;-71
2021/03/13 10:28:27;;;;;;;7.80;4.57;;;7.30;99.90;;;;;;4423735;32;20195;-70
2021/03/13 10:31:19;;;;;;;8.27;4.33;;;7.40;99.90;;;;;;4424242;32;20244;-72
2021/03/13 10:33:48;;;;;;;9.07;5.20;;;7.30;99.90;;;;;;4424520;32;20164;-70
2021/03/13 10:36:16;;;;;;;8.23;5.10;;;7.50;99.90;;;;;;4424336;32;20492;-72
2021/03/13 10:38:56;;;;;;;9.50;4.97;;;7.70;99.90;;;;;;4424190;32;20145;-71
2021/03/13 10:41:23;;;;;;;8.33;4.83;;;7.80;99.90;;;;;;4425993;32;20171;-73
2021/03/13 10:43:53;;;;;;;8.60;5.07;;;8.00;99.90;;;;;;4426225;32;20143;-73
2021/03/13 10:46:21;;;;;;;8.23;5.00;;;8.10;99.90;;;;;;4423436;32;20160;-72
2021/03/13 10:48:50;;;;;;;8.17;4.80;;;8.10;99.90;;;;;;4425350;32;20154;-71
2021/03/13 10:51:43;;;;;;;9.50;4.87;;;8.30;99.90;;;;;;4424106;32;20150;-72
2021/03/13 10:54:30;;;;;;;9.03;4.40;;;8.30;99.90;;;;;;4425362;32;20162;-71
2021/03/13 10:57:06;;;;;;;7.77;4.73;;;8.40;99.90;;;;;;4424337;32;20157;-72
2021/03/13 10:59:33;;;;;;;5.57;4.03;;;8.40;99.90;;;;;;4425654;32;20191;-72
2021/03/13 11:02:00;;;;;;;7.90;4.20;;;8.40;98.40;;;;;;4423948;32;20211;-73
2021/03/13 11:04:27;;;;;;;6.43;3.90;;;8.40;98.20;;;;;;4424348;32;20168;-72
2021/03/13 11:06:54;;;;;;;8.13;4.30;;;8.30;96.00;;;;;;4423322;32;20205;-71
2021/03/13 11:09:23;;;;;;;8.00;3.83;;;8.40;96.90;;;;;;4421094;32;20146;-71
2021/03/13 11:11:50;;;;;;;7.13;3.33;;;8.60;95.30;;;;;;4423152;32;20162;-72
2021/03/13 11:14:17;;;;;;;7.13;4.07;;;9.10;93.90;;;;;;4424260;32;20370;-72
2021/03/13 11:16:44;;;;;;;7.73;3.93;;;9.50;92.10;;;;;;4423400;32;20407;-72
2021/03/13 11:19:11;;;;;;;6.77;3.57;;;9.80;91.20;;;;;;4425097;32;20455;-72
2021/03/13 11:21:38;;;;;;;8.63;3.93;;;9.80;91.50;;;;;;4423271;32;20151;-70
2021/03/13 11:24:05;;;;;;;7.90;4.13;;;10.00;90.70;;;;;;4422734;32;20321;-71
2021/03/13 11:26:32;;;;;;;7.03;3.60;;;10.30;90.20;;;;;;4422570;32;20163;-72
2021/03/13 11:28:58;;;;;;;5.77;3.30;;;10.70;86.40;;;;;;4424519;32;20174;-71
2021/03/13 11:31:24;;;;;;;7.17;4.03;;;10.50;85.70;;;;;;4424440;32;20143;-72
2021/03/13 11:33:51;;;;;;;5.20;3.13;;;11.00;86.00;;;;;;4423435;32;20194;-71
2021/03/13 11:36:18;;;;;;;5.07;2.90;;;11.40;80.00;;;;;;4423630;32;20178;-69
2021/03/13 11:38:45;;;;;;;5.73;3.30;;;11.80;78.10;;;;;;4424811;32;20384;-72
2021/03/13 11:41:11;;;;;;;5.37;3.10;;;12.10;76.10;;;;;;4427777;32;20231;-71
2021/03/13 11:43:42;;;;;;;6.33;3.10;;;12.30;73.20;;;;;;4428083;32;20203;-71
2021/03/13 11:46:13;;;;;;;4.37;2.80;;;12.60;73.30;;;;;;4425680;32;20185;-70
2021/03/13 11:48:41;;;;;;;5.20;2.80;;;12.50;71.40;;;;;;4426230;32;20146;-70
2021/03/13 11:51:09;;;;;;;4.47;2.90;;;12.20;73.30;;;;;;4427343;32;20174;-70
2021/03/13 11:53:36;;;;;;;5.80;2.80;;;11.90;73.20;;;;;;4426723;32;20150;-71
2021/03/13 11:56:03;;;;;;;5.33;3.10;;;11.60;71.30;;;;;;4427484;32;20147;-70
2021/03/13 11:58:29;;;;;;;4.90;2.63;;;11.20;71.50;;;;;;4425586;32;20146;-67
2021/03/13 12:01:15;;;;;;;4.70;2.77;;;10.80;72.80;;;;;;4427513;32;20190;-68
2021/03/13 12:03:42;;;;;;;5.17;2.80;;;10.50;74.80;;;;;;4426164;32;20131;-68
2021/03/13 12:06:09;;;;;;;3.70;2.87;;;10.30;75.50;;;;;;4427439;32;20138;-69
2021/03/13 12:08:52;;;;;;;5.10;2.70;;;10.30;77.30;;;;;;4427699;32;20168;-70
2021/03/13 12:11:18;;;;;;;4.90;2.80;;;10.20;76.80;;;;;;4426201;32;20147;-68
2021/03/13 12:13:45;;;;;;;6.37;2.87;;;10.00;77.90;;;;;;4425320;32;20460;-71
2021/03/13 12:16:11;;;;;;;5.83;3.17;;;10.00;78.10;;;;;;4427470;32;20162;-70
2021/03/13 12:18:38;;;;;;;7.53;2.70;;;10.00;79.20;;;;;;4425725;32;20158;-70
2021/03/13 12:21:05;;;;;;;4.97;2.67;;;10.00;78.60;;;;;;4426383;32;20170;-71
2021/03/13 12:23:32;;;;;;;5.07;2.50;;;10.10;77.80;;;;;;4426571;32;20155;-71
2021/03/13 12:25:58;;;;;;;5.47;3.03;;;10.10;77.60;;;;;;4427335;32;20218;-72
2021/03/13 12:28:24;;;;;;;4.87;2.50;;;10.20;77.90;;;;;;4427341;32;20217;-70
2021/03/13 12:30:51;;;;;;;4.97;2.30;;;10.30;76.20;;;;;;4427569;32;20165;-70
2021/03/13 12:33:18;;;;;;;3.70;2.50;;;10.30;75.10;;;;;;4425809;32;20155;-70
2021/03/13 12:35:45;;;;;;;4.67;2.57;;;10.50;75.10;;;;;;4425191;32;20202;-69
2021/03/13 12:38:11;;;;;;;6.53;2.43;;;10.90;73.90;;;;;;4426217;32;20143;-69
2021/03/13 12:40:50;;;;;;;3.50;2.13;;;11.00;73.80;;;;;;4413448;32;20188;-69
2021/03/13 12:43:17;;;;;;;4.63;2.13;;;11.50;72.40;;;;;;4427067;32;20151;-70
2021/03/13 12:45:43;;;;;;;4.33;2.10;;;12.20;68.70;;;;;;4425719;32;20535;-70
2021/03/13 12:48:10;;;;;;;3.90;1.90;;;12.30;67.70;;;;;;4425402;32;20475;-71
2021/03/13 12:50:37;;;;;;;4.30;1.80;;;11.80;66.30;;;;;;4425938;32;20155;-69
2021/03/13 12:53:04;;;;;;;3.73;1.80;;;11.50;66.70;;;;;;4425417;32;20202;-71
2021/03/13 12:55:30;;;;;;;4.40;1.70;;;11.60;68.10;;;;;;4425432;32;20226;-70
2021/03/13 12:57:56;;;;;;;3.90;1.90;;;12.00;66.60;;;;;;4426918;32;20496;-68
2021/03/13 13:00:31;;;;;;;3.70;1.90;;;12.40;65.30;;;;;;4425300;32;20151;-70